sensor_id;sensor_type;location;lat;lon;timestamp;P1;durP1;ratioP1;P2;durP2;ratioP2
19004;SDS011;9635;52.078;8.648;2023-03-08T00:00:06;18.30;;;9.52;;
19004;SDS011;9635;52.078;8.648;2023-03-08T00:05:11;20.27;;;11.27;;
19004;SDS011;9635;52.078;8.648;2023-03-08T00:10:15;18.85;;;9.93;;
19004;SDS011;9635;52.078;8.648;2023-03-08T00:15:18;12.50;;;6.75;;
19004;SDS011;9635;52.078;8.648;2023-03-08T00:20:27;13.15;;;7.43;;
19004;SDS011;9635;52.078;8.648;2023-03-08T00:31:52;17.17;;;9.38;;
19004;SDS011;9635;52.078;8.648;2023-03-08T00:57:57;15.77;;;9.30;;
19004;SDS011;9635;52.078;8.648;2023-03-08T01:03:00;19.85;;;9.75;;
19004;SDS011;9635;52.078;8.648;2023-03-08T01:08:04;18.70;;;10.55;;
19004;SDS011;9635;52.078;8.648;2023-03-08T01:13:07;17.60;;;10.07;;
19004;SDS011;9635;52.078;8.648;2023-03-08T01:18:11;22.13;;;9.73;;
19004;SDS011;9635;52.078;8.648;2023-03-08T01:23:15;19.25;;;9.85;;
19004;SDS011;9635;52.078;8.648;2023-03-08T01:28:18;15.05;;;8.75;;
19004;SDS011;9635;52.078;8.648;2023-03-08T01:33:21;15.00;;;8.57;;
19004;SDS011;9635;52.078;8.648;2023-03-08T01:38:26;18.35;;;9.10;;
19004;SDS011;9635;52.078;8.648;2023-03-08T01:43:30;20.02;;;9.77;;
19004;SDS011;9635;52.078;8.648;2023-03-08T01:48:35;17.15;;;8.77;;
19004;SDS011;9635;52.078;8.648;2023-03-08T01:53:47;16.25;;;9.30;;
19004;SDS011;9635;52.078;8.648;2023-03-08T01:58:50;17.02;;;9.93;;
19004;SDS011;9635;52.078;8.648;2023-03-08T02:03:53;16.58;;;8.82;;
19004;SDS011;9635;52.078;8.648;2023-03-08T02:08:59;13.27;;;7.63;;
19004;SDS011;9635;52.078;8.648;2023-03-08T02:14:05;11.40;;;6.90;;
19004;SDS011;9635;52.078;8.648;2023-03-08T02:19:11;5.60;;;3.53;;
19004;SDS011;9635;52.078;8.648;2023-03-08T02:24:21;8.60;;;5.82;;
19004;SDS011;9635;52.078;8.648;2023-03-08T02:29:26;9.02;;;5.15;;
19004;SDS011;9635;52.078;8.648;2023-03-08T02:34:29;9.15;;;5.07;;
19004;SDS011;9635;52.078;8.648;2023-03-08T02:39:33;7.95;;;4.85;;
19004;SDS011;9635;52.078;8.648;2023-03-08T02:44:36;9.07;;;5.10;;
19004;SDS011;9635;52.078;8.648;2023-03-08T02:49:39;8.82;;;5.82;;
19004;SDS011;9635;52.078;8.648;2023-03-08T02:54:44;10.88;;;6.75;;
19004;SDS011;9635;52.078;8.648;2023-03-08T02:59:47;12.65;;;6.80;;
19004;SDS011;9635;52.078;8.648;2023-03-08T03:04:50;16.13;;;8.30;;
19004;SDS011;9635;52.078;8.648;2023-03-08T03:09:55;14.15;;;7.25;;
19004;SDS011;9635;52.078;8.648;2023-03-08T03:14:59;16.90;;;9.40;;
19004;SDS011;9635;52.078;8.648;2023-03-08T03:20:02;18.77;;;9.27;;
19004;SDS011;9635;52.078;8.648;2023-03-08T03:25:08;16.90;;;8.55;;
19004;SDS011;9635;52.078;8.648;2023-03-08T03:30:11;15.35;;;7.65;;
19004;SDS011;9635;52.078;8.648;2023-03-08T03:35:14;14.25;;;8.27;;
19004;SDS011;9635;52.078;8.648;2023-03-08T03:40:19;14.93;;;7.90;;
19004;SDS011;9635;52.078;8.648;2023-03-08T03:45:27;10.70;;;5.05;;
19004;SDS011;9635;52.078;8.648;2023-03-08T03:50:30;17.58;;;9.93;;
19004;SDS011;9635;52.078;8.648;2023-03-08T03:55:40;19.00;;;10.13;;
19004;SDS011;9635;52.078;8.648;2023-03-08T04:00:43;22.08;;;11.40;;
19004;SDS011;9635;52.078;8.648;2023-03-08T04:06:03;21.00;;;9.77;;
19004;SDS011;9635;52.078;8.648;2023-03-08T04:11:10;19.60;;;11.02;;
19004;SDS011;9635;52.078;8.648;2023-03-08T04:16:16;24.05;;;12.27;;
19004;SDS011;9635;52.078;8.648;2023-03-08T04:21:21;28.33;;;12.77;;
19004;SDS011;9635;52.078;8.648;2023-03-08T04:26:26;25.70;;;11.25;;
19004;SDS011;9635;52.078;8.648;2023-03-08T04:31:30;21.48;;;10.25;;
19004;SDS011;9635;52.078;8.648;2023-03-08T04:36:38;27.55;;;14.07;;
19004;SDS011;9635;52.078;8.648;2023-03-08T04:41:44;25.40;;;13.57;;
19004;SDS011;9635;52.078;8.648;2023-03-08T04:46:56;31.67;;;14.93;;
19004;SDS011;9635;52.078;8.648;2023-03-08T04:52:13;34.88;;;18.48;;
19004;SDS011;9635;52.078;8.648;2023-03-08T04:57:18;23.88;;;12.18;;
19004;SDS011;9635;52.078;8.648;2023-03-08T05:02:23;35.72;;;16.35;;
19004;SDS011;9635;52.078;8.648;2023-03-08T05:07:26;37.83;;;17.35;;
19004;SDS011;9635;52.078;8.648;2023-03-08T05:12:33;37.20;;;17.77;;
19004;SDS011;9635;52.078;8.648;2023-03-08T05:17:38;36.58;;;17.55;;
19004;SDS011;9635;52.078;8.648;2023-03-08T05:22:41;36.08;;;18.42;;
19004;SDS011;9635;52.078;8.648;2023-03-08T05:28:03;38.45;;;18.27;;
19004;SDS011;9635;52.078;8.648;2023-03-08T05:33:06;39.38;;;19.17;;
19004;SDS011;9635;52.078;8.648;2023-03-08T05:38:09;41.05;;;19.65;;
19004;SDS011;9635;52.078;8.648;2023-03-08T05:43:13;43.47;;;20.98;;
19004;SDS011;9635;52.078;8.648;2023-03-08T05:48:17;49.08;;;20.38;;
19004;SDS011;9635;52.078;8.648;2023-03-08T05:53:20;46.30;;;20.45;;
19004;SDS011;9635;52.078;8.648;2023-03-08T05:58:25;50.05;;;23.40;;
19004;SDS011;9635;52.078;8.648;2023-03-08T06:03:28;48.60;;;20.90;;
19004;SDS011;9635;52.078;8.648;2023-03-08T06:08:31;51.35;;;21.70;;
19004;SDS011;9635;52.078;8.648;2023-03-08T06:13:35;55.95;;;23.75;;
19004;SDS011;9635;52.078;8.648;2023-03-08T06:18:39;60.25;;;24.42;;
19004;SDS011;9635;52.078;8.648;2023-03-08T06:23:45;59.47;;;25.15;;
19004;SDS011;9635;52.078;8.648;2023-03-08T06:28:50;56.05;;;24.80;;
19004;SDS011;9635;52.078;8.648;2023-03-08T06:33:54;58.28;;;26.25;;
19004;SDS011;9635;52.078;8.648;2023-03-08T06:38:59;64.20;;;27.35;;
19004;SDS011;9635;52.078;8.648;2023-03-08T06:44:04;64.07;;;25.90;;
19004;SDS011;9635;52.078;8.648;2023-03-08T06:49:07;67.82;;;27.65;;
19004;SDS011;9635;52.078;8.648;2023-03-08T06:54:12;60.20;;;27.70;;
19004;SDS011;9635;52.078;8.648;2023-03-08T06:59:20;60.63;;;27.83;;
19004;SDS011;9635;52.078;8.648;2023-03-08T07:04:23;69.15;;;28.85;;
19004;SDS011;9635;52.078;8.648;2023-03-08T07:09:26;61.85;;;28.08;;
19004;SDS011;9635;52.078;8.648;2023-03-08T07:14:30;16.05;;;5.85;;
19004;SDS011;9635;52.078;8.648;2023-03-08T07:19:33;138.05;;;36.75;;
19004;SDS011;9635;52.078;8.648;2023-03-08T07:24:36;113.35;;;33.20;;
19004;SDS011;9635;52.078;8.648;2023-03-08T07:29:40;56.22;;;27.40;;
19004;SDS011;9635;52.078;8.648;2023-03-08T07:34:43;41.15;;;22.50;;
19004;SDS011;9635;52.078;8.648;2023-03-08T07:39:46;47.10;;;24.17;;
19004;SDS011;9635;52.078;8.648;2023-03-08T07:44:50;53.00;;;25.73;;
19004;SDS011;9635;52.078;8.648;2023-03-08T07:49:53;56.05;;;27.45;;
19004;SDS011;9635;52.078;8.648;2023-03-08T07:54:56;60.30;;;28.42;;
19004;SDS011;9635;52.078;8.648;2023-03-08T08:00:00;61.40;;;27.80;;
19004;SDS011;9635;52.078;8.648;2023-03-08T08:05:12;58.63;;;27.42;;
19004;SDS011;9635;52.078;8.648;2023-03-08T08:10:15;62.47;;;28.10;;
19004;SDS011;9635;52.078;8.648;2023-03-08T08:15:20;60.50;;;27.48;;
19004;SDS011;9635;52.078;8.648;2023-03-08T08:20:25;58.22;;;27.98;;
19004;SDS011;9635;52.078;8.648;2023-03-08T08:25:28;57.13;;;27.48;;
19004;SDS011;9635;52.078;8.648;2023-03-08T08:30:32;63.60;;;27.95;;
19004;SDS011;9635;52.078;8.648;2023-03-08T08:35:38;59.92;;;27.48;;
19004;SDS011;9635;52.078;8.648;2023-03-08T08:40:44;60.80;;;27.60;;
19004;SDS011;9635;52.078;8.648;2023-03-08T08:45:51;50.40;;;25.48;;
19004;SDS011;9635;52.078;8.648;2023-03-08T08:50:56;50.60;;;26.55;;
19004;SDS011;9635;52.078;8.648;2023-03-08T08:56:08;50.17;;;24.98;;
19004;SDS011;9635;52.078;8.648;2023-03-08T09:01:28;55.30;;;25.95;;
19004;SDS011;9635;52.078;8.648;2023-03-08T09:06:32;60.35;;;28.58;;
19004;SDS011;9635;52.078;8.648;2023-03-08T09:11:35;52.53;;;24.23;;
19004;SDS011;9635;52.078;8.648;2023-03-08T09:16:56;50.22;;;25.42;;
19004;SDS011;9635;52.078;8.648;2023-03-08T09:21:59;51.17;;;24.83;;
19004;SDS011;9635;52.078;8.648;2023-03-08T09:27:03;46.47;;;22.45;;
19004;SDS011;9635;52.078;8.648;2023-03-08T09:32:07;50.38;;;25.73;;
19004;SDS011;9635;52.078;8.648;2023-03-08T09:37:10;51.60;;;26.17;;
19004;SDS011;9635;52.078;8.648;2023-03-08T09:42:15;47.03;;;24.10;;
19004;SDS011;9635;52.078;8.648;2023-03-08T09:52:49;49.88;;;23.95;;
19004;SDS011;9635;52.078;8.648;2023-03-08T09:57:58;52.63;;;25.83;;
19004;SDS011;9635;52.078;8.648;2023-03-08T10:03:11;51.60;;;24.25;;
19004;SDS011;9635;52.078;8.648;2023-03-08T10:08:29;41.70;;;22.13;;
19004;SDS011;9635;52.078;8.648;2023-03-08T10:13:36;42.58;;;21.55;;
19004;SDS011;9635;52.078;8.648;2023-03-08T10:18:43;42.10;;;19.67;;
19004;SDS011;9635;52.078;8.648;2023-03-08T10:23:51;32.85;;;16.70;;
19004;SDS011;9635;52.078;8.648;2023-03-08T10:29:00;31.60;;;16.42;;
19004;SDS011;9635;52.078;8.648;2023-03-08T10:34:08;22.98;;;11.48;;
19004;SDS011;9635;52.078;8.648;2023-03-08T10:39:13;18.85;;;10.82;;
19004;SDS011;9635;52.078;8.648;2023-03-08T10:44:28;19.73;;;10.80;;
19004;SDS011;9635;52.078;8.648;2023-03-08T10:49:35;20.55;;;12.05;;
19004;SDS011;9635;52.078;8.648;2023-03-08T10:54:38;17.98;;;10.75;;
19004;SDS011;9635;52.078;8.648;2023-03-08T10:59:41;20.75;;;11.13;;
19004;SDS011;9635;52.078;8.648;2023-03-08T11:04:54;16.92;;;10.43;;
19004;SDS011;9635;52.078;8.648;2023-03-08T11:10:14;16.90;;;9.40;;
19004;SDS011;9635;52.078;8.648;2023-03-08T11:15:20;15.13;;;8.65;;
19004;SDS011;9635;52.078;8.648;2023-03-08T11:20:25;11.32;;;6.55;;
19004;SDS011;9635;52.078;8.648;2023-03-08T11:25:34;8.95;;;4.43;;
19004;SDS011;9635;52.078;8.648;2023-03-08T11:30:45;7.90;;;5.72;;
19004;SDS011;9635;52.078;8.648;2023-03-08T11:36:00;6.55;;;4.60;;
19004;SDS011;9635;52.078;8.648;2023-03-08T11:41:10;5.82;;;3.85;;
19004;SDS011;9635;52.078;8.648;2023-03-08T11:46:25;7.47;;;4.95;;
19004;SDS011;9635;52.078;8.648;2023-03-08T11:51:36;8.82;;;5.90;;
19004;SDS011;9635;52.078;8.648;2023-03-08T11:56:46;5.72;;;3.45;;
19004;SDS011;9635;52.078;8.648;2023-03-08T12:01:56;4.60;;;2.70;;
19004;SDS011;9635;52.078;8.648;2023-03-08T12:07:06;5.90;;;3.97;;
19004;SDS011;9635;52.078;8.648;2023-03-08T12:12:15;3.20;;;2.88;;
19004;SDS011;9635;52.078;8.648;2023-03-08T12:17:23;3.28;;;2.72;;
19004;SDS011;9635;52.078;8.648;2023-03-08T12:22:34;4.10;;;2.55;;
19004;SDS011;9635;52.078;8.648;2023-03-08T12:27:47;6.25;;;3.88;;
19004;SDS011;9635;52.078;8.648;2023-03-08T12:32:55;7.10;;;3.97;;
19004;SDS011;9635;52.078;8.648;2023-03-08T12:38:02;7.13;;;5.15;;
19004;SDS011;9635;52.078;8.648;2023-03-08T12:43:09;6.85;;;4.18;;
19004;SDS011;9635;52.078;8.648;2023-03-08T12:48:17;6.78;;;3.47;;
19004;SDS011;9635;52.078;8.648;2023-03-08T12:53:28;3.63;;;2.75;;
19004;SDS011;9635;52.078;8.648;2023-03-08T12:58:36;5.35;;;3.20;;
19004;SDS011;9635;52.078;8.648;2023-03-08T13:03:41;6.13;;;3.17;;
19004;SDS011;9635;52.078;8.648;2023-03-08T13:08:46;5.93;;;3.38;;
19004;SDS011;9635;52.078;8.648;2023-03-08T13:13:55;6.22;;;3.92;;
19004;SDS011;9635;52.078;8.648;2023-03-08T13:19:06;7.55;;;3.65;;
19004;SDS011;9635;52.078;8.648;2023-03-08T13:24:24;5.25;;;3.42;;
19004;SDS011;9635;52.078;8.648;2023-03-08T13:29:37;5.60;;;2.90;;
19004;SDS011;9635;52.078;8.648;2023-03-08T13:34:40;4.10;;;2.58;;
19004;SDS011;9635;52.078;8.648;2023-03-08T13:39:51;5.18;;;2.85;;
19004;SDS011;9635;52.078;8.648;2023-03-08T13:45:05;2.58;;;2.25;;
19004;SDS011;9635;52.078;8.648;2023-03-08T13:50:13;6.57;;;2.55;;
19004;SDS011;9635;52.078;8.648;2023-03-08T13:55:22;3.38;;;2.25;;
19004;SDS011;9635;52.078;8.648;2023-03-08T14:00:31;3.27;;;2.33;;
19004;SDS011;9635;52.078;8.648;2023-03-08T14:05:39;3.75;;;2.85;;
19004;SDS011;9635;52.078;8.648;2023-03-08T14:10:46;4.22;;;3.00;;
19004;SDS011;9635;52.078;8.648;2023-03-08T14:15:51;3.85;;;2.83;;
19004;SDS011;9635;52.078;8.648;2023-03-08T14:21:01;4.82;;;2.80;;
19004;SDS011;9635;52.078;8.648;2023-03-08T14:31:35;7.18;;;3.03;;
19004;SDS011;9635;52.078;8.648;2023-03-08T14:36:43;4.10;;;3.30;;
19004;SDS011;9635;52.078;8.648;2023-03-08T14:41:49;6.15;;;4.28;;
19004;SDS011;9635;52.078;8.648;2023-03-08T14:46:54;4.50;;;3.65;;
19004;SDS011;9635;52.078;8.648;2023-03-08T14:51:59;5.10;;;3.60;;
19004;SDS011;9635;52.078;8.648;2023-03-08T14:57:14;4.65;;;3.65;;
19004;SDS011;9635;52.078;8.648;2023-03-08T15:02:20;6.25;;;3.35;;
19004;SDS011;9635;52.078;8.648;2023-03-08T15:07:23;3.55;;;2.97;;
19004;SDS011;9635;52.078;8.648;2023-03-08T15:12:35;4.45;;;3.22;;
19004;SDS011;9635;52.078;8.648;2023-03-08T15:17:39;6.07;;;3.90;;
19004;SDS011;9635;52.078;8.648;2023-03-08T15:22:43;5.43;;;3.28;;
19004;SDS011;9635;52.078;8.648;2023-03-08T15:27:48;5.93;;;4.00;;
19004;SDS011;9635;52.078;8.648;2023-03-08T15:32:52;6.20;;;4.00;;
19004;SDS011;9635;52.078;8.648;2023-03-08T15:37:59;5.70;;;3.67;;
19004;SDS011;9635;52.078;8.648;2023-03-08T15:43:02;4.45;;;3.15;;
19004;SDS011;9635;52.078;8.648;2023-03-08T15:48:08;7.22;;;4.20;;
19004;SDS011;9635;52.078;8.648;2023-03-08T15:53:14;6.15;;;4.43;;
19004;SDS011;9635;52.078;8.648;2023-03-08T15:58:34;6.93;;;4.63;;
19004;SDS011;9635;52.078;8.648;2023-03-08T16:03:39;7.95;;;4.57;;
19004;SDS011;9635;52.078;8.648;2023-03-08T16:08:42;5.90;;;4.85;;
19004;SDS011;9635;52.078;8.648;2023-03-08T16:13:46;6.85;;;5.32;;
19004;SDS011;9635;52.078;8.648;2023-03-08T16:18:51;8.02;;;5.20;;
19004;SDS011;9635;52.078;8.648;2023-03-08T16:23:53;8.02;;;5.40;;
19004;SDS011;9635;52.078;8.648;2023-03-08T16:28:57;11.27;;;5.63;;
19004;SDS011;9635;52.078;8.648;2023-03-08T16:34:02;10.52;;;5.50;;
19004;SDS011;9635;52.078;8.648;2023-03-08T16:39:06;10.60;;;5.90;;
19004;SDS011;9635;52.078;8.648;2023-03-08T16:44:15;14.35;;;7.30;;
19004;SDS011;9635;52.078;8.648;2023-03-08T16:49:22;13.77;;;8.20;;
19004;SDS011;9635;52.078;8.648;2023-03-08T16:54:28;14.38;;;8.30;;
19004;SDS011;9635;52.078;8.648;2023-03-08T16:59:31;16.48;;;9.07;;
19004;SDS011;9635;52.078;8.648;2023-03-08T17:04:35;15.25;;;7.75;;
19004;SDS011;9635;52.078;8.648;2023-03-08T17:09:38;14.30;;;8.68;;
19004;SDS011;9635;52.078;8.648;2023-03-08T17:14:41;16.33;;;9.15;;
19004;SDS011;9635;52.078;8.648;2023-03-08T17:19:49;15.82;;;8.32;;
19004;SDS011;9635;52.078;8.648;2023-03-08T17:24:53;17.42;;;9.52;;
19004;SDS011;9635;52.078;8.648;2023-03-08T17:29:55;15.73;;;9.25;;
19004;SDS011;9635;52.078;8.648;2023-03-08T17:35:02;18.33;;;10.23;;
19004;SDS011;9635;52.078;8.648;2023-03-08T17:40:06;15.35;;;9.73;;
19004;SDS011;9635;52.078;8.648;2023-03-08T17:45:10;16.67;;;10.30;;
19004;SDS011;9635;52.078;8.648;2023-03-08T17:50:15;16.65;;;10.93;;
19004;SDS011;9635;52.078;8.648;2023-03-08T17:55:18;17.65;;;9.60;;
19004;SDS011;9635;52.078;8.648;2023-03-08T18:00:21;18.98;;;11.18;;
19004;SDS011;9635;52.078;8.648;2023-03-08T18:05:26;19.13;;;10.80;;
19004;SDS011;9635;52.078;8.648;2023-03-08T18:10:29;18.75;;;10.82;;
19004;SDS011;9635;52.078;8.648;2023-03-08T18:15:32;18.88;;;11.20;;
19004;SDS011;9635;52.078;8.648;2023-03-08T18:20:36;20.85;;;12.10;;
19004;SDS011;9635;52.078;8.648;2023-03-08T18:25:39;23.25;;;12.00;;
19004;SDS011;9635;52.078;8.648;2023-03-08T18:30:42;21.75;;;11.70;;
19004;SDS011;9635;52.078;8.648;2023-03-08T18:35:46;20.13;;;12.68;;
19004;SDS011;9635;52.078;8.648;2023-03-08T18:40:57;19.90;;;12.35;;
19004;SDS011;9635;52.078;8.648;2023-03-08T18:45:59;21.73;;;12.05;;
19004;SDS011;9635;52.078;8.648;2023-03-08T18:51:04;20.95;;;12.73;;
19004;SDS011;9635;52.078;8.648;2023-03-08T18:56:07;22.70;;;12.88;;
19004;SDS011;9635;52.078;8.648;2023-03-08T19:01:11;24.75;;;14.85;;
19004;SDS011;9635;52.078;8.648;2023-03-08T19:06:17;23.17;;;13.70;;
19004;SDS011;9635;52.078;8.648;2023-03-08T19:11:20;29.27;;;17.25;;
19004;SDS011;9635;52.078;8.648;2023-03-08T19:16:26;31.63;;;17.52;;
19004;SDS011;9635;52.078;8.648;2023-03-08T19:21:31;31.00;;;16.80;;
19004;SDS011;9635;52.078;8.648;2023-03-08T19:26:36;28.55;;;16.42;;
19004;SDS011;9635;52.078;8.648;2023-03-08T19:31:41;32.72;;;17.17;;
19004;SDS011;9635;52.078;8.648;2023-03-08T19:36:47;32.88;;;18.17;;
19004;SDS011;9635;52.078;8.648;2023-03-08T19:41:51;33.58;;;17.63;;
19004;SDS011;9635;52.078;8.648;2023-03-08T19:46:55;32.47;;;17.42;;
19004;SDS011;9635;52.078;8.648;2023-03-08T19:52:00;31.55;;;17.85;;
19004;SDS011;9635;52.078;8.648;2023-03-08T19:57:05;32.53;;;17.30;;
19004;SDS011;9635;52.078;8.648;2023-03-08T20:02:10;35.00;;;18.77;;
19004;SDS011;9635;52.078;8.648;2023-03-08T20:07:18;35.33;;;17.85;;
19004;SDS011;9635;52.078;8.648;2023-03-08T20:12:21;36.70;;;19.10;;
19004;SDS011;9635;52.078;8.648;2023-03-08T20:17:24;34.30;;;19.15;;
19004;SDS011;9635;52.078;8.648;2023-03-08T20:22:29;34.40;;;18.08;;
19004;SDS011;9635;52.078;8.648;2023-03-08T20:27:32;40.95;;;20.45;;
19004;SDS011;9635;52.078;8.648;2023-03-08T20:32:36;40.00;;;20.98;;
19004;SDS011;9635;52.078;8.648;2023-03-08T20:37:41;36.17;;;19.00;;
19004;SDS011;9635;52.078;8.648;2023-03-08T20:42:44;34.95;;;19.85;;
19004;SDS011;9635;52.078;8.648;2023-03-08T20:47:46;34.50;;;18.45;;
19004;SDS011;9635;52.078;8.648;2023-03-08T20:52:50;38.67;;;17.75;;
19004;SDS011;9635;52.078;8.648;2023-03-08T20:57:54;35.58;;;18.45;;
19004;SDS011;9635;52.078;8.648;2023-03-08T21:02:56;35.45;;;18.58;;
19004;SDS011;9635;52.078;8.648;2023-03-08T21:08:01;34.13;;;18.08;;
19004;SDS011;9635;52.078;8.648;2023-03-08T21:13:05;34.22;;;18.40;;
19004;SDS011;9635;52.078;8.648;2023-03-08T21:18:08;34.33;;;19.60;;
19004;SDS011;9635;52.078;8.648;2023-03-08T21:23:12;36.03;;;18.77;;
19004;SDS011;9635;52.078;8.648;2023-03-08T21:28:16;34.85;;;18.08;;
19004;SDS011;9635;52.078;8.648;2023-03-08T21:33:19;35.03;;;18.38;;
19004;SDS011;9635;52.078;8.648;2023-03-08T21:38:23;35.08;;;18.52;;
19004;SDS011;9635;52.078;8.648;2023-03-08T21:43:26;34.63;;;18.10;;
19004;SDS011;9635;52.078;8.648;2023-03-08T21:48:29;34.70;;;18.90;;
19004;SDS011;9635;52.078;8.648;2023-03-08T21:53:33;35.47;;;18.25;;
19004;SDS011;9635;52.078;8.648;2023-03-08T21:58:37;39.60;;;19.58;;
19004;SDS011;9635;52.078;8.648;2023-03-08T22:03:39;37.20;;;18.13;;
19004;SDS011;9635;52.078;8.648;2023-03-08T22:08:44;40.53;;;20.65;;
19004;SDS011;9635;52.078;8.648;2023-03-08T22:13:48;35.13;;;18.88;;
19004;SDS011;9635;52.078;8.648;2023-03-08T22:18:51;38.53;;;19.65;;
19004;SDS011;9635;52.078;8.648;2023-03-08T22:23:57;37.88;;;19.10;;
19004;SDS011;9635;52.078;8.648;2023-03-08T22:29:01;42.47;;;19.80;;
19004;SDS011;9635;52.078;8.648;2023-03-08T22:34:04;40.08;;;19.98;;
19004;SDS011;9635;52.078;8.648;2023-03-08T22:39:10;39.15;;;19.95;;
19004;SDS011;9635;52.078;8.648;2023-03-08T22:44:13;49.75;;;21.77;;
19004;SDS011;9635;52.078;8.648;2023-03-08T22:49:17;43.67;;;20.60;;
19004;SDS011;9635;52.078;8.648;2023-03-08T22:54:21;45.70;;;21.17;;
19004;SDS011;9635;52.078;8.648;2023-03-08T22:59:25;48.03;;;21.67;;
19004;SDS011;9635;52.078;8.648;2023-03-08T23:04:27;47.65;;;22.13;;
19004;SDS011;9635;52.078;8.648;2023-03-08T23:09:32;52.70;;;24.20;;
19004;SDS011;9635;52.078;8.648;2023-03-08T23:14:35;52.33;;;23.10;;
19004;SDS011;9635;52.078;8.648;2023-03-08T23:19:38;47.97;;;21.70;;
19004;SDS011;9635;52.078;8.648;2023-03-08T23:24:46;49.47;;;22.17;;
19004;SDS011;9635;52.078;8.648;2023-03-08T23:29:50;50.20;;;22.20;;
19004;SDS011;9635;52.078;8.648;2023-03-08T23:48:10;48.03;;;21.70;;
19004;SDS011;9635;52.078;8.648;2023-03-08T23:53:13;49.20;;;21.30;;
19004;SDS011;9635;52.078;8.648;2023-03-08T23:58:15;46.53;;;21.42;;
